Time;durP1;ratioP1;P1;durP2;ratioP2;P2;SDS_P1;SDS_P2;PMS_P1;PMS_P2;Temp;Humidity;BMP_temperature;BMP_pressure;BME280_temperature;BME280_humidity;BME280_pressure;Samples;Min_cycle;Max_cycle;Signal;HPM_P1;HPM_P2
2022/05/27 00:04:20;;;;;;;0.20;0.00;;;22.40;99.90;;;;;;26435539;22;20182;-76
2022/05/27 00:14:26;;;;;;;0.20;0.00;;;22.40;99.90;;;;;;26405502;22;20182;-76
2022/05/27 00:24:30;;;;;;;0.20;0.00;;;22.20;99.90;;;;;;26406115;22;20186;-76
2022/05/27 00:34:35;;;;;;;0.20;0.10;;;21.80;99.90;;;;;;26406868;22;20211;-78
2022/05/27 00:44:39;;;;;;;0.20;0.00;;;21.40;99.90;;;;;;26404786;22;20201;-77
2022/05/27 00:54:46;;;;;;;0.20;0.10;;;20.80;99.90;;;;;;26430819;22;20190;-76
2022/05/27 01:04:51;;;;;;;0.20;0.10;;;20.70;99.90;;;;;;26432958;22;20186;-77
2022/05/27 01:15:10;;;;;;;0.20;0.00;;;20.20;99.90;;;;;;26404779;22;20190;-75
2022/05/27 01:25:51;;;;;;;0.20;0.10;;;19.90;99.90;;;;;;26403741;22;20170;-75
2022/05/27 01:36:04;;;;;;;0.20;0.10;;;20.00;99.90;;;;;;26429229;22;20169;-76
2022/05/27 01:46:14;;;;;;;0.20;0.10;;;20.10;99.90;;;;;;26431196;22;20591;-75
2022/05/27 01:56:23;;;;;;;0.20;0.10;;;20.30;99.90;;;;;;26401222;22;20192;-76
2022/05/27 02:06:32;;;;;;;0.20;0.10;;;20.20;99.90;;;;;;26428333;22;20269;-75
2022/05/27 02:16:42;;;;;;;0.20;0.10;;;19.90;99.90;;;;;;26430289;22;20162;-75
2022/05/27 02:26:53;;;;;;;0.20;0.00;;;19.90;99.90;;;;;;26400928;22;20192;-74
2022/05/27 02:37:05;;;;;;;0.20;0.10;;;19.70;99.90;;;;;;26427454;22;20187;-74
2022/05/27 02:47:15;;;;;;;0.20;0.00;;;19.40;99.90;;;;;;26399489;22;20174;-76
2022/05/27 02:57:25;;;;;;;0.20;0.10;;;19.50;99.90;;;;;;26427975;22;20186;-75
2022/05/27 03:07:56;;;;;;;0.20;0.10;;;19.50;99.90;;;;;;26426648;22;20190;-76
2022/05/27 03:18:12;;;;;;;0.20;0.00;;;19.90;99.90;;;;;;26434778;22;20182;-76
2022/05/27 03:28:22;;;;;;;0.20;0.10;;;20.00;99.90;;;;;;26409147;22;20509;-77
2022/05/27 03:38:34;;;;;;;0.20;0.00;;;20.00;99.90;;;;;;26406301;22;20197;-77
2022/05/27 03:48:38;;;;;;;0.20;0.00;;;19.90;99.90;;;;;;26434246;22;20154;-75
2022/05/27 03:58:44;;;;;;;0.20;0.10;;;19.80;99.90;;;;;;26435796;22;20182;-76
2022/05/27 04:08:47;;;;;;;0.20;0.00;;;20.50;99.90;;;;;;26433022;22;20186;-76
2022/05/27 04:18:53;;;;;;;0.20;0.10;;;20.50;99.90;;;;;;26409744;22;20190;-77
2022/05/27 04:28:57;;;;;;;0.20;0.10;;;20.10;99.90;;;;;;26429114;22;20162;-76
2022/05/27 04:39:04;;;;;;;0.20;0.10;;;19.70;99.90;;;;;;26433034;22;20276;-75
2022/05/27 04:49:08;;;;;;;0.20;0.10;;;19.40;99.90;;;;;;26431537;22;20162;-76
2022/05/27 04:59:16;;;;;;;0.20;0.10;;;19.40;99.90;;;;;;26430679;22;20190;-77
2022/05/27 05:09:20;;;;;;;0.20;0.10;;;19.50;99.90;;;;;;26430918;22;20185;-77
2022/05/27 05:19:25;;;;;;;0.20;0.03;;;19.40;99.90;;;;;;26402594;22;20201;-77
2022/05/27 05:29:29;;;;;;;0.20;0.00;;;19.30;99.90;;;;;;26404513;22;20177;-76
2022/05/27 05:39:36;;;;;;;0.20;0.10;;;19.40;99.90;;;;;;26427808;22;20182;-76
2022/05/27 05:49:42;;;;;;;0.20;0.00;;;19.50;99.90;;;;;;26374259;22;20177;-73
2022/05/27 05:59:48;;;;;;;0.20;0.10;;;19.80;99.90;;;;;;26422833;22;20247;-76
2022/05/27 06:09:52;;;;;;;0.20;0.10;;;20.10;99.90;;;;;;26390647;22;20194;-75
2022/05/27 06:19:57;;;;;;;0.20;0.00;;;20.40;99.90;;;;;;26426105;22;20182;-74
2022/05/27 06:40:24;;;;;;;0.20;0.00;;;21.00;99.90;;;;;;26396508;22;20186;-78
2022/05/27 06:50:29;;;;;;;0.20;0.10;;;21.00;99.90;;;;;;26428008;22;20154;-76
2022/05/27 07:00:35;;;;;;;0.20;0.00;;;21.10;99.90;;;;;;26431145;22;20196;-71
2022/05/27 07:10:39;;;;;;;0.20;0.00;;;21.50;99.90;;;;;;26403807;22;20197;-74
2022/05/27 07:20:45;;;;;;;0.20;0.00;;;21.30;99.90;;;;;;26430521;22;20197;-75
2022/05/27 07:30:49;;;;;;;0.20;0.00;;;21.50;99.90;;;;;;26405385;22;20173;-75
2022/05/27 07:40:55;;;;;;;0.20;0.00;;;21.40;99.90;;;;;;26431002;22;20193;-71
2022/05/27 07:50:59;;;;;;;0.20;0.00;;;21.90;99.90;;;;;;26403943;22;20166;-69
2022/05/27 08:01:05;;;;;;;0.20;0.00;;;22.50;99.90;;;;;;26426702;22;20277;-73
2022/05/27 08:11:09;;;;;;;0.20;0.00;;;22.40;99.90;;;;;;26393212;22;20254;-72
2022/05/27 08:21:14;;;;;;;0.20;0.10;;;21.80;99.90;;;;;;26429109;22;20182;-74
2022/05/27 08:31:18;;;;;;;0.20;0.00;;;21.80;99.90;;;;;;26398174;22;20166;-73
2022/05/27 08:41:35;;;;;;;0.20;0.00;;;22.30;99.90;;;;;;26428582;22;20412;-74
2022/05/27 08:51:45;;;;;;;0.20;0.00;;;22.60;99.90;;;;;;26425494;22;20237;-74
2022/05/27 09:01:52;;;;;;;0.20;0.00;;;22.90;99.90;;;;;;26426298;22;20182;-76
2022/05/27 09:12:14;;;;;;;0.20;0.00;;;22.90;99.90;;;;;;26424663;22;20190;-75
2022/05/27 09:22:30;;;;;;;0.20;0.00;;;22.90;99.90;;;;;;26398379;22;20209;-78
2022/05/27 09:32:49;;;;;;;0.20;0.00;;;23.10;99.90;;;;;;26422915;22;20162;-75
2022/05/27 09:43:01;;;;;;;0.20;0.00;;;23.30;99.90;;;;;;26409936;22;20190;-68
2022/05/27 09:53:05;;;;;;;0.20;0.00;;;23.10;99.90;;;;;;26411752;22;20612;-74
2022/05/27 10:03:40;;;;;;;0.20;0.00;;;23.50;99.90;;;;;;26384770;22;20193;-71
2022/05/27 10:13:44;;;;;;;0.20;0.00;;;23.90;99.90;;;;;;26194606;22;20208;-74
2022/05/27 10:23:54;;;;;;;0.20;0.00;;;24.00;99.90;;;;;;26388088;22;20193;-77
2022/05/27 10:34:00;;;;;;;0.20;0.00;;;23.50;99.90;;;;;;26367177;22;20162;-73
2022/05/27 10:44:19;;;;;;;0.20;0.00;;;23.60;99.90;;;;;;26412807;22;20260;-76
2022/05/27 10:54:46;;;;;;;0.20;0.00;;;24.50;99.90;;;;;;26412326;22;20269;-73
2022/05/27 11:05:17;;;;;;;0.20;0.00;;;26.30;99.90;;;;;;26405919;22;20261;-73
2022/05/27 11:15:37;;;;;;;0.20;0.10;;;25.20;99.90;;;;;;26284313;22;20166;-74
2022/05/27 11:25:58;;;;;;;0.20;0.00;;;25.30;99.90;;;;;;26251663;22;20197;-71
2022/05/27 11:36:17;;;;;;;0.20;0.00;;;25.60;99.90;;;;;;26254248;22;20173;-72
2022/05/27 11:46:45;;;;;;;0.20;0.00;;;24.80;99.90;;;;;;26259587;22;20182;-71
2022/05/27 11:57:17;;;;;;;0.20;0.00;;;25.30;99.90;;;;;;26288171;22;20197;-69
2022/05/27 12:07:30;;;;;;;0.20;0.10;;;26.20;99.90;;;;;;26262968;22;20214;-72
2022/05/27 12:17:41;;;;;;;0.20;0.00;;;27.90;99.90;;;;;;26290097;22;20169;-74
2022/05/27 12:27:46;;;;;;;0.20;0.00;;;27.60;99.90;;;;;;26258105;22;20242;-73
2022/05/27 12:37:52;;;;;;;0.20;0.00;;;27.10;99.90;;;;;;26248285;22;20159;-73
2022/05/27 12:47:58;;;;;;;0.20;0.00;;;28.30;99.90;;;;;;26285731;22;20191;-75
2022/05/27 13:08:34;;;;;;;0.20;0.08;;;27.30;99.90;;;;;;26301063;22;20201;-74
2022/05/27 13:18:51;;;;;;;0.20;0.00;;;27.50;99.90;;;;;;26412663;22;20165;-72
2022/05/27 13:28:58;;;;;;;0.20;0.00;;;27.80;99.90;;;;;;26414847;22;20181;-75
2022/05/27 13:39:10;;;;;;;0.20;0.00;;;28.40;99.90;;;;;;26411334;22;20165;-74
2022/05/27 13:49:22;;;;;;;0.32;0.32;;;28.50;99.90;;;;;;26412964;22;20166;-73
2022/05/27 13:59:30;;;;;;;0.20;0.00;;;28.80;99.90;;;;;;26410685;22;20192;-75
2022/05/27 14:09:36;;;;;;;0.20;0.00;;;28.90;99.90;;;;;;26409025;22;20361;-75
2022/05/27 14:19:40;;;;;;;0.20;0.00;;;29.70;99.90;;;;;;26404760;22;20178;-74
2022/05/27 14:29:46;;;;;;;0.20;0.05;;;29.40;99.90;;;;;;26406724;22;20177;-76
2022/05/27 14:39:55;;;;;;;0.20;0.00;;;29.80;99.90;;;;;;26414357;22;20413;-74
2022/05/27 14:50:02;;;;;;;0.20;0.10;;;29.70;99.90;;;;;;26406598;22;20161;-78
2022/05/27 15:00:09;;;;;;;0.20;0.00;;;30.50;99.90;;;;;;26411986;22;20197;-76
2022/05/27 15:10:25;;;;;;;0.20;0.00;;;29.80;99.90;;;;;;26412318;22;20201;-76
2022/05/27 15:20:28;;;;;;;0.20;0.10;;;29.60;99.90;;;;;;26419395;22;20178;-78
2022/05/27 15:41:03;;;;;;;0.20;0.00;;;29.80;99.90;;;;;;26413261;22;20178;-77
2022/05/27 15:51:09;;;;;;;0.20;0.10;;;29.10;99.90;;;;;;26415890;22;20233;-75
2022/05/27 16:01:16;;;;;;;0.20;0.00;;;29.50;99.90;;;;;;26414388;22;20260;-78
2022/05/27 16:11:22;;;;;;;0.20;0.00;;;29.50;99.90;;;;;;26413653;22;20190;-79
2022/05/27 16:21:26;;;;;;;0.20;0.00;;;28.20;99.90;;;;;;26414834;22;20186;-77
2022/05/27 16:31:32;;;;;;;0.20;0.00;;;27.10;99.90;;;;;;26415215;22;20166;-77
2022/05/27 16:41:36;;;;;;;0.20;0.00;;;27.00;99.90;;;;;;26413693;22;20197;-75
2022/05/27 16:51:41;;;;;;;0.20;0.00;;;26.40;99.90;;;;;;26412423;22;20186;-80
2022/05/27 17:01:46;;;;;;;0.20;0.00;;;27.20;99.90;;;;;;26412032;22;20170;-78
2022/05/27 17:11:51;;;;;;;0.20;0.10;;;29.00;99.90;;;;;;26414181;22;20189;-81
2022/05/27 17:21:55;;;;;;;0.20;0.10;;;29.20;99.90;;;;;;26414163;22;20182;-78
2022/05/27 17:32:00;;;;;;;0.20;0.00;;;28.80;99.90;;;;;;26411609;22;20166;-80
2022/05/27 17:42:06;;;;;;;0.20;0.00;;;28.90;99.90;;;;;;26413987;22;20178;-78
2022/05/27 17:52:12;;;;;;;0.20;0.00;;;28.30;99.90;;;;;;26415114;22;20190;-82
2022/05/27 18:02:16;;;;;;;0.20;0.10;;;27.90;99.90;;;;;;26418764;22;20182;-81
2022/05/27 18:12:22;;;;;;;0.20;0.05;;;27.90;99.90;;;;;;26414651;22;20194;-80
2022/05/27 18:22:26;;;;;;;0.20;0.00;;;27.50;99.90;;;;;;26411228;22;20241;-82
2022/05/27 18:32:31;;;;;;;0.20;0.00;;;27.10;99.90;;;;;;26410588;22;20171;-79
2022/05/27 18:42:35;;;;;;;0.20;0.10;;;26.70;99.90;;;;;;26411854;22;20186;-84
2022/05/27 18:52:41;;;;;;;0.20;0.10;;;25.90;99.90;;;;;;26419759;22;20201;-80
2022/05/27 19:02:45;;;;;;;0.20;0.00;;;24.90;99.90;;;;;;26422433;22;20186;-81
2022/05/27 19:12:54;;;;;;;0.20;0.03;;;24.50;99.90;;;;;;26415918;22;20280;-80
2022/05/27 19:22:58;;;;;;;0.20;0.00;;;24.10;99.90;;;;;;26419175;22;20181;-80
2022/05/27 19:33:05;;;;;;;0.20;0.00;;;23.90;99.90;;;;;;26420031;22;20177;-78
2022/05/27 19:43:09;;;;;;;0.20;0.00;;;23.40;99.90;;;;;;26394229;22;20174;-82
2022/05/27 19:53:16;;;;;;;0.20;0.00;;;23.60;99.90;;;;;;26414311;22;20193;-80
2022/05/27 20:14:13;;;;;;;0.20;0.00;;;22.80;99.90;;;;;;26388869;22;20204;-77
2022/05/27 20:24:18;;;;;;;0.20;0.00;;;23.10;99.90;;;;;;26415657;22;20178;-78
2022/05/27 20:34:23;;;;;;;0.20;0.00;;;22.90;99.90;;;;;;26426120;22;20166;-78
2022/05/27 20:44:33;;;;;;;0.20;0.00;;;22.70;99.90;;;;;;26419996;22;20178;-78
2022/05/27 20:54:40;;;;;;;0.20;0.00;;;22.70;99.90;;;;;;26421957;22;20189;-78
2022/05/27 21:04:46;;;;;;;0.20;0.00;;;22.70;99.90;;;;;;26420163;22;20178;-78
2022/05/27 21:14:52;;;;;;;0.20;0.10;;;22.50;99.90;;;;;;26417307;22;20186;-78
2022/05/27 21:24:55;;;;;;;0.20;0.00;;;22.40;99.90;;;;;;26415247;22;20182;-75
2022/05/27 21:35:00;;;;;;;0.20;0.00;;;22.60;99.90;;;;;;26417061;22;20166;-75
2022/05/27 21:45:05;;;;;;;0.20;0.00;;;21.80;99.90;;;;;;26418386;22;20182;-77
2022/05/27 21:55:11;;;;;;;0.20;0.00;;;22.00;99.90;;;;;;26416140;22;20216;-77
2022/05/27 22:05:15;;;;;;;0.20;0.00;;;22.10;99.90;;;;;;26415585;22;20174;-76
2022/05/27 22:15:21;;;;;;;0.20;0.00;;;21.60;99.90;;;;;;26416419;22;20173;-77
2022/05/27 22:25:25;;;;;;;0.20;0.00;;;21.80;99.90;;;;;;26389822;22;20190;-77
2022/05/27 22:35:31;;;;;;;0.20;0.10;;;21.30;99.90;;;;;;26417644;22;20203;-78
2022/05/27 22:45:35;;;;;;;0.20;0.00;;;21.40;99.90;;;;;;26414097;22;20197;-78
2022/05/27 22:55:40;;;;;;;0.20;0.00;;;21.10;99.90;;;;;;26415582;22;20174;-77
2022/05/27 23:05:47;;;;;;;0.20;0.10;;;21.10;99.90;;;;;;26415988;22;20198;-76
2022/05/27 23:26:15;;;;;;;0.20;0.00;;;20.80;99.90;;;;;;26418220;22;20208;-78
2022/05/27 23:36:20;;;;;;;0.20;0.10;;;20.70;99.90;;;;;;26419910;22;20167;-77
2022/05/27 23:46:27;;;;;;;0.20;0.10;;;20.40;99.90;;;;;;26424848;22;20182;-78
2022/05/27 23:56:33;;;;;;;0.20;0.10;;;20.50;99.90;;;;;;26425572;22;20413;-79
